createdAt,value
2019-05-18T00:00:47.953Z,94.00
2019-05-18T00:03:16.374Z,93.99
2019-05-18T00:05:44.763Z,93.46
2019-05-18T00:08:13.261Z,92.35
2019-05-18T00:10:41.732Z,91.36
2019-05-18T00:13:10.141Z,91.98
2019-05-18T00:15:38.528Z,92.10
2019-05-18T00:18:06.932Z,92.12
2019-05-18T00:20:35.355Z,92.11
2019-05-18T00:23:03.845Z,92.21
2019-05-18T00:25:32.318Z,92.03
2019-05-18T00:28:00.733Z,91.86
2019-05-18T00:30:29.216Z,91.10
2019-05-18T00:32:57.646Z,91.56
2019-05-18T00:35:26.069Z,91.41
2019-05-18T00:37:54.483Z,91.87
2019-05-18T00:40:22.882Z,91.92
2019-05-18T00:42:51.308Z,92.28
2019-05-18T00:45:19.783Z,92.66
2019-05-18T00:47:48.182Z,92.36
2019-05-18T00:50:17.223Z,91.99
2019-05-18T00:52:45.642Z,92.10
2019-05-18T00:55:14.119Z,92.02
2019-05-18T00:57:42.518Z,92.29
2019-05-18T01:00:11.675Z,91.92
2019-05-18T01:02:40.105Z,91.75
2019-05-18T01:05:08.983Z,91.47
2019-05-18T01:07:37.419Z,91.76
2019-05-18T01:10:07.970Z,91.83
2019-05-18T01:12:36.407Z,91.40
2019-05-18T01:15:06.959Z,91.60
2019-05-18T01:17:35.423Z,91.83
2019-05-18T01:20:05.204Z,92.14
2019-05-18T01:22:33.619Z,92.65
2019-05-18T01:25:02.022Z,92.64
2019-05-18T01:27:30.455Z,92.63
2019-05-18T01:29:58.858Z,93.52
2019-05-18T01:32:28.300Z,93.43
2019-05-18T01:34:56.751Z,93.01
2019-05-18T01:37:25.147Z,92.24
2019-05-18T01:39:54.564Z,93.06
2019-05-18T01:42:22.973Z,93.20
2019-05-18T01:44:51.408Z,93.50
2019-05-18T01:47:19.809Z,94.17
2019-05-18T01:49:48.292Z,94.51
2019-05-18T01:52:16.716Z,94.52
2019-05-18T01:54:45.125Z,94.40
2019-05-18T01:57:13.546Z,93.70
2019-05-18T01:59:41.983Z,92.98
2019-05-18T02:02:10.416Z,92.79
2019-05-18T02:04:38.815Z,92.50
2019-05-18T02:07:07.248Z,92.57
2019-05-18T02:09:35.685Z,92.80
2019-05-18T02:12:04.198Z,93.18
2019-05-18T02:14:32.590Z,93.66
2019-05-18T02:17:01.001Z,93.37
2019-05-18T02:19:29.438Z,93.00
2019-05-18T02:21:57.854Z,93.50
2019-05-18T02:24:26.281Z,93.38
2019-05-18T02:26:54.712Z,93.62
2019-05-18T02:29:23.118Z,93.90
2019-05-18T02:31:51.527Z,94.10
2019-05-18T02:34:19.941Z,94.16
2019-05-18T02:36:48.408Z,93.97
2019-05-18T02:39:16.810Z,93.93
2019-05-18T02:41:45.247Z,93.63
2019-05-18T02:44:13.678Z,93.70
2019-05-18T02:46:42.104Z,93.45
2019-05-18T02:49:10.541Z,93.58
2019-05-18T02:51:38.961Z,93.34
2019-05-18T02:54:07.521Z,93.22
2019-05-18T02:56:36.622Z,93.09
2019-05-18T02:59:05.029Z,93.50
2019-05-18T03:01:33.426Z,93.70
2019-05-18T03:04:01.864Z,93.90
2019-05-18T03:06:30.317Z,93.66
2019-05-18T03:08:58.809Z,93.81
2019-05-18T03:11:27.225Z,93.67
2019-05-18T03:13:55.622Z,93.89
2019-05-18T03:16:24.069Z,94.12
2019-05-18T03:19:07.789Z,94.21
2019-05-18T03:21:22.893Z,94.05
2019-05-18T03:23:51.337Z,93.76
2019-05-18T03:26:19.762Z,93.78
2019-05-18T03:28:48.184Z,93.84
2019-05-18T03:31:16.602Z,93.67
2019-05-18T03:33:45.014Z,93.75
2019-05-18T03:36:13.445Z,93.81
2019-05-18T03:38:41.871Z,93.94
2019-05-18T03:41:10.308Z,94.58
2019-05-18T03:43:38.720Z,94.16
2019-05-18T03:46:07.160Z,93.84
2019-05-18T03:48:35.554Z,94.19
2019-05-18T03:51:03.986Z,94.61
2019-05-18T03:53:32.404Z,94.56
2019-05-18T03:56:00.801Z,94.82
2019-05-18T03:58:29.228Z,94.96
2019-05-18T04:00:57.681Z,95.20
2019-05-18T04:03:26.077Z,95.03
2019-05-18T04:05:54.523Z,94.91
2019-05-18T04:08:22.946Z,94.90
2019-05-18T04:10:51.340Z,94.85
2019-05-18T04:13:19.777Z,94.68
2019-05-18T04:15:48.206Z,94.47
2019-05-18T04:18:16.622Z,94.46
2019-05-18T04:20:45.043Z,94.53
2019-05-18T04:23:13.479Z,94.82
2019-05-18T04:25:43.905Z,95.13
2019-05-18T04:28:12.064Z,95.26
2019-05-18T04:30:40.485Z,95.45
2019-05-18T04:33:08.918Z,95.70
2019-05-18T04:35:37.313Z,95.79
2019-05-18T04:38:05.722Z,95.88
2019-05-18T04:40:34.214Z,96.02
2019-05-18T04:43:02.669Z,95.94
2019-05-18T04:45:31.088Z,95.56
2019-05-18T04:47:59.532Z,95.18
2019-05-18T04:50:27.983Z,95.18
2019-05-18T04:52:56.394Z,94.48
2019-05-18T04:55:24.796Z,94.07
2019-05-18T04:57:53.217Z,93.62
2019-05-18T05:00:21.774Z,93.25
2019-05-18T05:02:50.174Z,93.45
2019-05-18T05:05:18.598Z,92.90
2019-05-18T05:07:47.133Z,92.37
2019-05-18T05:10:15.540Z,92.08
2019-05-18T05:12:43.950Z,91.38
2019-05-18T05:15:12.743Z,91.18
2019-05-18T05:17:41.128Z,91.37
2019-05-18T05:20:19.395Z,90.70
2019-05-18T05:22:39.918Z,90.23
2019-05-18T05:25:08.515Z,89.93
2019-05-18T05:27:36.952Z,89.44
2019-05-18T05:30:07.415Z,89.33
2019-05-18T05:32:35.848Z,88.89
2019-05-18T05:35:05.726Z,88.73
2019-05-18T05:37:34.207Z,88.36
2019-05-18T05:40:02.642Z,88.83
2019-05-18T05:42:31.071Z,88.91
2019-05-18T05:44:59.550Z,88.32
2019-05-18T05:47:27.971Z,88.47
2019-05-18T05:49:59.707Z,89.09
2019-05-18T05:52:28.082Z,88.86
2019-05-18T05:54:56.483Z,88.21
2019-05-18T05:57:25.142Z,88.19
2019-05-18T05:59:53.710Z,86.96
2019-05-18T06:02:22.179Z,87.53
2019-05-18T06:04:50.593Z,87.16
2019-05-18T06:07:18.986Z,86.43
2019-05-18T06:09:47.391Z,86.42
2019-05-18T06:12:15.786Z,86.73
2019-05-18T06:14:44.230Z,86.74
2019-05-18T06:17:12.673Z,86.94
2019-05-18T06:19:41.096Z,86.87
2019-05-18T06:22:11.450Z,86.53
2019-05-18T06:24:39.853Z,85.48
2019-05-18T06:27:08.265Z,84.19
2019-05-18T06:29:36.773Z,84.01
2019-05-18T06:32:05.345Z,83.46
2019-05-18T06:34:33.753Z,83.35
2019-05-18T06:37:02.326Z,82.99
2019-05-18T06:39:33.469Z,83.46
2019-05-18T06:42:01.929Z,82.43
2019-05-18T06:44:30.619Z,83.57
2019-05-18T06:46:59.034Z,82.45
2019-05-18T06:49:27.507Z,81.76
2019-05-18T06:51:56.202Z,81.08
2019-05-18T06:54:33.892Z,81.51
2019-05-18T06:57:25.522Z,81.64
2019-05-18T06:59:54.512Z,81.23
2019-05-18T07:02:22.939Z,80.72
2019-05-18T07:04:51.412Z,80.95
2019-05-18T07:07:20.023Z,80.15
2019-05-18T07:09:48.651Z,78.42
2019-05-18T07:12:17.050Z,78.31
2019-05-18T07:14:45.456Z,78.44
2019-05-18T07:17:13.852Z,77.92
2019-05-18T07:19:42.273Z,76.92
2019-05-18T07:22:10.703Z,76.90
2019-05-18T07:24:39.112Z,77.97
2019-05-18T07:27:07.527Z,75.05
2019-05-18T07:29:35.945Z,74.57
2019-05-18T07:32:14.129Z,74.92
2019-05-18T07:34:43.053Z,73.54
2019-05-18T07:37:11.481Z,74.98
2019-05-18T07:39:39.878Z,74.27
2019-05-18T07:42:09.371Z,75.07
2019-05-18T07:44:40.540Z,74.85
2019-05-18T07:47:09.039Z,73.82
2019-05-18T07:49:37.464Z,73.86
2019-05-18T07:52:05.886Z,73.71
2019-05-18T07:54:34.342Z,73.04
2019-05-18T07:57:02.766Z,74.68
2019-05-18T07:59:31.238Z,73.60
2019-05-18T08:01:59.642Z,72.59
2019-05-18T08:04:28.279Z,72.67
2019-05-18T08:06:56.705Z,72.00
2019-05-18T08:09:25.112Z,71.80
2019-05-18T08:11:53.550Z,70.94
2019-05-18T08:14:22.004Z,71.23
2019-05-18T08:16:56.494Z,69.87
2019-05-18T08:19:25.953Z,68.60
2019-05-18T08:21:54.411Z,69.51
2019-05-18T08:24:23.011Z,69.55
2019-05-18T08:26:51.526Z,68.84
2019-05-18T08:29:20.087Z,68.10
2019-05-18T08:31:48.768Z,66.41
2019-05-18T08:34:17.189Z,66.09
2019-05-18T08:36:45.625Z,68.03
2019-05-18T08:39:14.352Z,66.08
2019-05-18T08:41:42.798Z,63.89
2019-05-18T08:44:11.221Z,64.31
2019-05-18T08:46:39.991Z,64.49
2019-05-18T08:49:08.412Z,66.27
2019-05-18T08:51:37.148Z,65.43
2019-05-18T08:54:05.564Z,64.32
2019-05-18T08:56:34.002Z,65.37
2019-05-18T08:59:02.768Z,63.79
2019-05-18T09:01:31.172Z,65.08
2019-05-18T09:03:59.566Z,63.97
2019-05-18T09:06:28.369Z,65.22
2019-05-18T09:08:56.790Z,63.77
2019-05-18T09:11:25.515Z,63.06
2019-05-18T09:13:53.903Z,63.53
2019-05-18T09:16:22.342Z,64.15
2019-05-18T09:18:50.731Z,63.99
2019-05-18T09:21:19.434Z,64.98
2019-05-18T09:23:47.869Z,64.66
2019-05-18T09:26:16.304Z,63.27
2019-05-18T09:28:44.734Z,64.45
2019-05-18T09:31:13.472Z,65.34
2019-05-18T09:33:41.901Z,64.21
2019-05-18T09:36:10.313Z,64.72
2019-05-18T09:38:38.805Z,62.03
2019-05-18T09:41:07.217Z,62.86
2019-05-18T09:43:35.641Z,62.99
2019-05-18T09:46:04.662Z,64.57
2019-05-18T09:48:33.461Z,63.95
2019-05-18T09:51:02.249Z,63.51
2019-05-18T09:53:30.667Z,63.53
2019-05-18T09:55:59.415Z,62.90
2019-05-18T09:58:28.095Z,61.57
2019-05-18T10:00:56.903Z,60.80
2019-05-18T10:03:25.560Z,60.80
2019-05-18T10:05:54.254Z,59.76
2019-05-18T10:08:22.646Z,59.76
2019-05-18T10:10:51.080Z,60.27
2019-05-18T10:13:19.473Z,59.51
2019-05-18T10:15:48.204Z,58.58
2019-05-18T10:18:16.637Z,58.78
2019-05-18T10:20:45.360Z,56.87
2019-05-18T10:23:14.121Z,56.87
2019-05-18T10:25:42.940Z,59.57
2019-05-18T10:28:11.364Z,57.85
2019-05-18T10:30:39.802Z,58.76
2019-05-18T10:33:08.227Z,59.64
2019-05-18T10:35:36.653Z,56.06
2019-05-18T10:38:05.332Z,56.06
2019-05-18T10:40:33.751Z,54.49
2019-05-18T10:43:02.158Z,54.95
2019-05-18T10:45:30.906Z,55.64
2019-05-18T10:47:59.357Z,53.54
2019-05-18T10:50:27.763Z,52.49
2019-05-18T10:52:56.191Z,52.84
2019-05-18T10:55:24.591Z,53.03
2019-05-18T10:57:53.019Z,47.72
2019-05-18T11:00:21.848Z,47.55
2019-05-18T11:02:50.374Z,48.48
2019-05-18T11:05:18.970Z,47.49
2019-05-18T11:07:47.378Z,48.61
2019-05-18T11:10:17.840Z,48.09
2019-05-18T11:12:46.535Z,47.29
2019-05-18T11:15:15.595Z,47.59
2019-05-18T11:17:44.334Z,45.10
2019-05-18T11:20:14.642Z,46.77
2019-05-18T11:22:43.047Z,47.81
2019-05-18T11:25:11.914Z,46.38
2019-05-18T11:27:40.344Z,45.87
2019-05-18T11:30:10.546Z,47.21
2019-05-18T11:32:39.458Z,47.77
2019-05-18T11:35:09.143Z,46.87
2019-05-18T11:37:37.544Z,47.77
2019-05-18T11:40:08.178Z,45.66
2019-05-18T11:42:36.629Z,45.37
2019-05-18T11:45:09.981Z,46.15
2019-05-18T11:47:38.426Z,48.24
2019-05-18T11:50:10.587Z,46.84
2019-05-18T11:52:39.272Z,47.98
2019-05-18T11:55:08.533Z,47.12
2019-05-18T11:57:38.765Z,45.65
2019-05-18T12:00:09.952Z,44.58
2019-05-18T12:02:38.700Z,45.63
2019-05-18T12:05:07.663Z,46.45
2019-05-18T12:07:36.063Z,44.68
2019-05-18T12:10:07.308Z,46.80
2019-05-18T12:12:35.773Z,45.50
2019-05-18T12:15:06.660Z,46.66
2019-05-18T12:17:35.447Z,47.60
2019-05-18T12:20:05.347Z,46.57
2019-05-18T12:22:34.052Z,45.69
2019-05-18T12:25:02.722Z,47.36
2019-05-18T12:27:31.551Z,47.54
2019-05-18T12:30:00.055Z,46.40
2019-05-18T12:32:28.478Z,45.79
2019-05-18T12:34:57.161Z,47.34
2019-05-18T12:37:25.574Z,45.61
2019-05-18T12:39:54.332Z,47.66
2019-05-18T12:42:23.003Z,48.75
2019-05-18T12:44:51.421Z,45.82
2019-05-18T12:47:20.080Z,45.44
2019-05-18T12:49:48.573Z,45.74
2019-05-18T12:52:17.017Z,47.59
2019-05-18T12:54:46.889Z,48.87
2019-05-18T12:57:15.713Z,47.97
2019-05-18T12:59:44.104Z,47.99
2019-05-18T13:02:12.607Z,44.54
2019-05-18T13:04:41.960Z,44.84
2019-05-18T13:07:10.502Z,43.83
2019-05-18T13:09:38.902Z,45.70
2019-05-18T13:12:07.666Z,45.46
2019-05-18T13:14:36.098Z,45.03
2019-05-18T13:17:04.500Z,41.73
2019-05-18T13:19:32.926Z,43.42
2019-05-18T13:22:01.750Z,42.13
2019-05-18T13:24:44.326Z,41.88
2019-05-18T13:27:00.633Z,44.26
2019-05-18T13:29:29.071Z,45.12
2019-05-18T13:31:57.503Z,42.98
2019-05-18T13:34:26.181Z,42.76
2019-05-18T13:36:54.840Z,41.83
2019-05-18T13:39:24.881Z,42.44
2019-05-18T13:41:53.290Z,41.57
2019-05-18T13:44:22.030Z,43.35
2019-05-18T13:46:50.713Z,44.40
2019-05-18T13:49:19.113Z,40.68
2019-05-18T13:51:47.543Z,40.43
2019-05-18T13:54:15.969Z,42.89
2019-05-18T13:56:44.398Z,43.45
2019-05-18T13:59:12.792Z,41.36
2019-05-18T14:01:41.229Z,39.80
2019-05-18T14:04:09.692Z,39.99
2019-05-18T14:06:38.360Z,39.78
2019-05-18T14:09:06.996Z,40.57
2019-05-18T14:11:35.750Z,38.17
2019-05-18T14:14:05.146Z,40.09
2019-05-18T14:16:33.584Z,38.93
2019-05-18T14:19:02.509Z,39.12
2019-05-18T14:21:30.913Z,41.48
2019-05-18T14:23:59.696Z,41.27
2019-05-18T14:26:28.364Z,41.77
2019-05-18T14:28:56.821Z,40.88
2019-05-18T14:31:25.260Z,41.31
2019-05-18T14:33:53.699Z,43.39
2019-05-18T14:36:22.100Z,43.47
2019-05-18T14:38:50.530Z,42.10
2019-05-18T14:41:18.924Z,42.39
2019-05-18T14:43:47.391Z,42.00
2019-05-18T14:46:15.788Z,41.97
2019-05-18T14:48:44.511Z,39.39
2019-05-18T14:51:13.203Z,41.43
2019-05-18T14:53:41.607Z,39.77
2019-05-18T14:56:10.027Z,39.94
2019-05-18T14:58:38.485Z,40.90
2019-05-18T15:01:07.074Z,38.12
2019-05-18T15:03:35.815Z,37.90
2019-05-18T15:06:04.278Z,39.52
2019-05-18T15:08:32.711Z,39.16
2019-05-18T15:11:01.105Z,38.88
2019-05-18T15:13:29.522Z,39.49
2019-05-18T15:15:57.906Z,40.77
2019-05-18T15:18:26.331Z,40.73
2019-05-18T15:20:54.728Z,41.09
2019-05-18T15:23:23.127Z,41.35
2019-05-18T15:25:51.849Z,40.83
2019-05-18T15:56:05.939Z,40.94
2019-05-18T15:58:30.408Z,40.35
2019-05-18T16:00:58.902Z,40.83
2019-05-18T16:03:27.336Z,40.97
2019-05-18T16:05:55.725Z,41.29
2019-05-18T16:08:24.164Z,42.05
2019-05-18T16:10:52.630Z,40.90
2019-05-18T16:13:21.059Z,42.81
2019-05-18T16:15:49.849Z,44.84
2019-05-18T16:18:18.250Z,44.73
2019-05-18T16:20:46.668Z,45.10
2019-05-18T16:23:15.069Z,46.47
2019-05-18T16:25:44.003Z,47.45
2019-05-18T16:28:12.416Z,48.05
2019-05-18T16:30:40.895Z,48.61
2019-05-18T16:33:09.629Z,48.37
2019-05-18T16:35:38.298Z,49.01
2019-05-18T16:38:06.753Z,48.99
2019-05-18T16:40:35.187Z,47.94
2019-05-18T16:43:03.636Z,47.65
2019-05-18T16:45:32.096Z,48.84
2019-05-18T16:48:00.529Z,48.11
2019-05-18T16:50:28.953Z,48.60
2019-05-18T16:52:57.428Z,49.70
2019-05-18T16:55:25.855Z,49.25
2019-05-18T16:57:54.292Z,49.99
2019-05-18T17:00:23.248Z,51.32
2019-05-18T17:02:52.018Z,50.79
2019-05-18T17:05:20.520Z,50.94
2019-05-18T17:07:49.296Z,51.02
2019-05-18T17:10:18.413Z,51.17
2019-05-18T17:12:46.818Z,51.89
2019-05-18T17:15:15.688Z,52.23
2019-05-18T17:17:44.331Z,51.85
2019-05-18T17:20:13.957Z,51.79
2019-05-18T17:22:42.494Z,51.55
2019-05-18T17:25:11.272Z,51.19
2019-05-18T17:27:39.843Z,51.43
2019-05-18T17:30:09.017Z,51.43
2019-05-18T17:32:37.922Z,51.52
2019-05-18T17:35:08.392Z,50.71
2019-05-18T17:37:36.849Z,50.50
2019-05-18T17:40:07.295Z,50.50
2019-05-18T17:42:35.789Z,48.94
2019-05-18T17:45:06.568Z,51.17
2019-05-18T17:47:34.970Z,51.17
2019-05-18T17:50:05.539Z,51.03
2019-05-18T17:52:34.237Z,51.56
2019-05-18T17:55:02.946Z,53.21
2019-05-18T17:57:31.472Z,55.75
2019-05-18T17:59:59.944Z,55.60
2019-05-18T18:02:28.364Z,58.41
2019-05-18T18:04:57.072Z,58.61
2019-05-18T18:07:25.563Z,60.03
2019-05-18T18:09:54.473Z,60.27
2019-05-18T18:12:23.267Z,60.68
2019-05-18T18:14:51.704Z,61.66
2019-05-18T18:17:20.398Z,62.77
2019-05-18T18:19:48.808Z,63.63
2019-05-18T18:22:17.454Z,64.41
2019-05-18T18:24:46.142Z,64.64
2019-05-18T18:27:24.539Z,64.65
2019-05-18T18:29:44.689Z,64.86
2019-05-18T18:32:13.095Z,65.29
2019-05-18T18:34:41.501Z,65.90
2019-05-18T18:37:09.903Z,66.55
2019-05-18T18:39:38.328Z,67.35
2019-05-18T18:42:06.727Z,68.36
2019-05-18T18:44:35.166Z,68.87
2019-05-18T18:47:04.030Z,69.60
2019-05-18T18:49:32.482Z,70.02
2019-05-18T18:52:01.199Z,70.76
2019-05-18T18:54:30.226Z,70.29
2019-05-18T18:56:58.650Z,70.51
2019-05-18T18:59:28.578Z,70.96
2019-05-18T19:01:56.981Z,71.45
2019-05-18T19:04:25.441Z,71.83
2019-05-18T19:06:54.259Z,72.19
2019-05-18T19:09:22.682Z,72.54
2019-05-18T19:11:51.489Z,72.43
2019-05-18T19:14:19.951Z,72.66
2019-05-18T19:16:48.507Z,73.35
2019-05-18T19:19:16.992Z,73.90
2019-05-18T19:21:45.725Z,73.05
2019-05-18T19:24:14.253Z,73.25
2019-05-18T19:26:42.840Z,72.32
2019-05-18T19:29:11.231Z,70.87
2019-05-18T19:31:39.664Z,71.13
2019-05-18T19:34:08.125Z,71.66
2019-05-18T19:36:36.684Z,71.95
2019-05-18T19:39:06.845Z,72.50
2019-05-18T19:41:35.648Z,71.22
2019-05-18T19:44:04.100Z,71.42
2019-05-18T19:46:32.529Z,72.32
2019-05-18T19:49:00.920Z,72.60
2019-05-18T19:51:32.807Z,72.72
2019-05-18T19:54:01.366Z,72.91
2019-05-18T19:56:37.530Z,73.31
2019-05-18T19:59:00.521Z,73.28
2019-05-18T20:01:28.932Z,73.97
2019-05-18T20:03:57.318Z,74.33
2019-05-18T20:06:26.053Z,74.53
2019-05-18T20:08:54.453Z,75.22
2019-05-18T20:11:22.848Z,75.40
2019-05-18T20:13:51.341Z,75.74
2019-05-18T20:16:20.116Z,74.65
2019-05-18T20:18:48.771Z,74.87
2019-05-18T20:21:17.637Z,75.48
2019-05-18T20:23:47.417Z,75.71
2019-05-18T20:26:15.812Z,76.17
2019-05-18T20:28:44.207Z,75.40
2019-05-18T20:31:12.685Z,75.96
2019-05-18T20:33:41.078Z,74.62
2019-05-18T20:36:09.680Z,73.59
2019-05-18T20:38:38.361Z,73.05
2019-05-18T20:41:06.772Z,74.36
2019-05-18T20:43:35.765Z,75.50
2019-05-18T20:46:04.716Z,75.29
2019-05-18T20:48:33.435Z,75.57
2019-05-18T20:51:01.856Z,75.88
2019-05-18T20:53:30.262Z,76.31
2019-05-18T20:55:58.808Z,76.28
2019-05-18T20:58:39.537Z,76.35
2019-05-18T21:00:57.567Z,76.11
2019-05-18T21:03:26.040Z,76.40
2019-05-18T21:05:54.856Z,76.68
2019-05-18T21:08:23.645Z,76.33
2019-05-18T21:10:52.425Z,76.71
2019-05-18T21:13:21.025Z,77.12
2019-05-18T21:15:49.449Z,76.71
2019-05-18T21:18:17.869Z,76.84
2019-05-18T21:20:46.587Z,76.88
2019-05-18T21:23:15.015Z,77.38
2019-05-18T21:25:43.738Z,77.33
2019-05-18T21:28:12.523Z,77.10
2019-05-18T21:30:40.925Z,77.51
2019-05-18T21:33:09.486Z,77.51
2019-05-18T21:35:37.926Z,77.60
2019-05-18T21:38:06.595Z,77.63
2019-05-18T21:40:35.067Z,77.61
2019-05-18T21:43:03.806Z,77.25
2019-05-18T21:45:32.595Z,77.19
2019-05-18T21:48:01.282Z,77.49
2019-05-18T21:50:29.969Z,77.82
2019-05-18T21:52:58.678Z,77.70
2019-05-18T21:55:27.060Z,77.82
2019-05-18T21:57:56.056Z,77.32
2019-05-18T22:00:25.098Z,77.93
2019-05-18T22:02:53.705Z,77.33
2019-05-18T22:05:22.434Z,77.08
2019-05-18T22:07:50.963Z,77.41
2019-05-18T22:10:25.783Z,77.30
2019-05-18T22:12:49.687Z,77.54
2019-05-18T22:15:18.854Z,77.86
2019-05-18T22:18:03.090Z,78.45
2019-05-18T22:20:35.603Z,78.04
2019-05-18T22:23:05.318Z,78.05
2019-05-18T22:25:34.466Z,78.13
2019-05-18T22:28:03.233Z,78.04
2019-05-18T22:30:31.648Z,78.11
2019-05-18T22:33:00.087Z,78.13
2019-05-18T22:35:28.861Z,78.17
2019-05-18T22:37:59.180Z,77.63
2019-05-18T22:40:27.617Z,78.01
2019-05-18T22:42:56.349Z,77.84
2019-05-18T22:45:25.051Z,78.08
2019-05-18T22:47:53.487Z,78.41
2019-05-18T22:50:22.051Z,78.58
2019-05-18T22:52:50.807Z,78.67
2019-05-18T22:55:19.495Z,78.95
2019-05-18T22:57:48.175Z,79.45
2019-05-18T23:00:16.936Z,79.94
2019-05-18T23:02:45.374Z,80.57
2019-05-18T23:05:14.236Z,81.02
2019-05-18T23:07:43.027Z,80.96
2019-05-18T23:10:11.883Z,80.87
2019-05-18T23:12:40.358Z,81.05
2019-05-18T23:15:09.180Z,81.58
2019-05-18T23:17:37.577Z,81.63
2019-05-18T23:20:07.531Z,82.19
2019-05-18T23:22:36.275Z,82.13
2019-05-18T23:25:07.007Z,82.34
2019-05-18T23:27:35.710Z,82.67
2019-05-18T23:30:06.465Z,82.68
2019-05-18T23:32:35.028Z,82.54
2019-05-18T23:35:04.795Z,83.53
2019-05-18T23:37:33.195Z,83.01
2019-05-18T23:40:01.685Z,82.98
2019-05-18T23:42:30.100Z,83.66
2019-05-18T23:44:58.515Z,83.27
2019-05-18T23:47:26.949Z,83.49
2019-05-18T23:49:55.364Z,83.87
2019-05-18T23:52:23.769Z,84.93
2019-05-18T23:54:52.461Z,84.82
2019-05-18T23:57:20.896Z,85.18
2019-05-18T23:59:49.286Z,85.77
